Time;durP1;ratioP1;P1;durP2;ratioP2;P2;SDS_P1;SDS_P2;PMS_P1;PMS_P2;Temp;Humidity;BMP_temperature;BMP_pressure;BME280_temperature;BME280_humidity;BME280_pressure;Samples;Min_cycle;Max_cycle;Signal;HPM_P1;HPM_P2
2021/05/24 00:02:25;;;;;;;18.90;5.20;;;;;;;8.04;72.79;99329.38;1966210;90;21664;-64
2021/05/24 00:05:27;;;;;;;19.25;5.70;;;;;;;8.06;72.58;99328.02;1966257;91;21081;-65
2021/05/24 00:08:28;;;;;;;21.57;5.80;;;;;;;8.07;72.52;99326.64;1965982;90;21201;-64
2021/05/24 00:11:31;;;;;;;23.42;5.50;;;;;;;8.09;72.41;99325.30;1966169;90;21033;-64
2021/05/24 00:14:35;;;;;;;;;;;;;;;8.09;72.34;99326.13;1968445;90;21648;-64
2021/05/24 00:17:36;;;;;;;19.25;5.28;;;;;;;8.16;72.12;99334.56;2018701;87;20261;-64
2021/05/24 00:20:37;;;;;;;20.17;5.37;;;;;;;8.19;72.09;99330.51;1999205;89;21060;-65
2021/05/24 00:23:39;;;;;;;21.50;5.92;;;;;;;8.15;72.12;99336.31;1967927;90;21580;-64
2021/05/24 00:26:40;;;;;;;21.25;5.78;;;;;;;8.04;72.12;99336.38;1966243;90;21157;-63
2021/05/24 00:29:42;;;;;;;22.32;6.12;;;;;;;8.01;71.91;99354.34;1966193;91;21575;-65
2021/05/24 00:32:43;;;;;;;20.72;5.47;;;;;;;8.01;72.32;99358.72;1995535;89;21042;-64
2021/05/24 00:35:45;;;;;;;21.42;5.60;;;;;;;8.10;72.21;99361.80;2035130;87;21093;-64
2021/05/24 00:38:46;;;;;;;20.12;5.70;;;;;;;8.19;72.13;99359.69;2035120;87;21544;-68
2021/05/24 00:41:48;;;;;;;18.27;5.53;;;;;;;8.19;71.87;99354.47;2014183;88;21025;-64
2021/05/24 00:44:49;;;;;;;22.07;6.25;;;;;;;8.02;72.53;99359.97;2035348;87;21104;-65
2021/05/24 00:47:51;;;;;;;26.95;8.43;;;;;;;7.91;72.48;99353.03;2014154;88;21158;-64
2021/05/24 00:50:53;;;;;;;23.32;6.30;;;;;;;7.86;72.35;99359.75;2035459;87;21067;-64
2021/05/24 00:53:55;;;;;;;24.77;6.75;;;;;;;7.81;72.29;99366.92;2014044;88;21136;-65
2021/05/24 00:56:57;;;;;;;22.98;6.25;;;;;;;7.74;72.56;99370.26;2035322;87;21041;-64
2021/05/24 00:59:58;;;;;;;19.98;5.90;;;;;;;7.71;72.69;99362.98;2014052;88;21508;-64
2021/05/24 01:03:00;;;;;;;19.85;5.78;;;;;;;7.73;72.72;99370.29;2035227;87;21103;-64
2021/05/24 01:06:01;;;;;;;22.48;6.20;;;;;;;7.70;72.64;99371.72;2014491;88;21041;-64
2021/05/24 01:09:03;;;;;;;18.05;4.65;;;;;;;7.75;73.29;99377.16;2035200;87;21005;-64
2021/05/24 01:12:04;;;;;;;20.77;5.67;;;;;;;7.77;72.65;99386.23;2014132;88;21040;-64
2021/05/24 01:15:05;;;;;;;22.20;5.92;;;;;;;7.70;72.82;99383.47;2035233;87;21571;-64
2021/05/24 01:18:07;;;;;;;20.92;5.85;;;;;;;7.68;73.10;99384.00;2014109;88;21061;-63
2021/05/24 01:21:08;;;;;;;22.22;6.87;;;;;;;7.65;72.67;99382.36;2035237;87;21045;-64
2021/05/24 01:24:10;;;;;;;21.40;6.00;;;;;;;7.52;72.44;99382.47;2014220;88;21068;-63
2021/05/24 01:27:11;;;;;;;22.15;6.03;;;;;;;7.42;72.70;99380.66;2035299;87;21120;-65
2021/05/24 01:30:13;;;;;;;22.98;6.05;;;;;;;7.37;73.17;99386.07;2014163;88;21623;-64
2021/05/24 01:33:16;;;;;;;27.32;6.33;;;;;;;7.39;73.39;99380.79;2035245;87;21089;-64
2021/05/24 01:36:18;;;;;;;25.00;6.55;;;;;;;7.43;73.71;99382.38;1990946;88;21193;-64
2021/05/24 01:39:20;;;;;;;21.30;6.28;;;;;;;7.42;73.62;99383.27;2035267;87;21520;-64
2021/05/24 01:42:21;;;;;;;22.50;6.75;;;;;;;7.43;73.58;99382.38;2014346;88;21160;-64
2021/05/24 01:45:22;;;;;;;23.52;6.62;;;;;;;7.45;73.87;99388.38;2035290;87;21560;-64
2021/05/24 01:48:24;;;;;;;23.98;6.97;;;;;;;7.50;73.93;99392.97;2014303;88;21156;-67
2021/05/24 01:51:26;;;;;;;26.42;7.90;;;;;;;7.43;74.17;99393.66;2035441;87;21069;-64
2021/05/24 01:54:28;;;;;;;25.68;7.42;;;;;;;7.44;74.23;99400.58;2014128;88;21169;-63
2021/05/24 01:57:29;;;;;;;24.55;7.60;;;;;;;7.50;74.28;99393.41;2035434;87;21099;-66
2021/05/24 02:00:31;;;;;;;22.73;7.60;;;;;;;7.52;74.31;99392.44;2014256;88;21539;-64
2021/05/24 02:03:32;;;;;;;27.10;8.05;;;;;;;7.49;74.18;99392.56;2035307;87;21069;-63
2021/05/24 02:06:33;;;;;;;23.25;7.62;;;;;;;7.49;74.10;99393.03;2013931;88;21069;-64
2021/05/24 02:09:35;;;;;;;23.22;7.67;;;;;;;7.43;73.85;99399.34;2035636;87;21053;-65
2021/05/24 02:12:36;;;;;;;24.20;7.87;;;;;;;7.38;73.95;99389.05;2014113;88;21120;-65
2021/05/24 02:15:38;;;;;;;24.50;7.62;;;;;;;7.36;74.49;99400.02;2035424;87;21084;-64
2021/05/24 02:18:39;;;;;;;23.85;7.08;;;;;;;7.42;74.06;99396.33;2014035;88;21048;-64
2021/05/24 02:21:41;;;;;;;24.70;7.65;;;;;;;7.34;74.14;99395.33;2035171;87;21547;-64
2021/05/24 02:24:42;;;;;;;23.05;7.37;;;;;;;7.35;74.30;99396.17;2013981;88;21092;-64
2021/05/24 02:27:44;;;;;;;23.65;7.37;;;;;;;7.28;74.35;99398.16;2035389;87;21025;-64
2021/05/24 02:30:45;;;;;;;21.62;7.47;;;;;;;7.23;74.14;99400.95;2014071;88;21052;-64
2021/05/24 02:33:46;;;;;;;24.35;7.72;;;;;;;7.08;73.64;99400.21;2028309;87;21085;-65
2021/05/24 02:36:48;;;;;;;22.42;8.10;;;;;;;6.91;73.45;99404.74;2012806;88;21551;-66
2021/05/24 02:39:49;;;;;;;22.77;7.83;;;;;;;6.73;73.82;99408.89;2028335;87;21061;-64
2021/05/24 02:42:51;;;;;;;21.80;7.30;;;;;;;6.67;73.93;99402.13;2012844;88;21127;-64
2021/05/24 02:45:52;;;;;;;21.87;7.55;;;;;;;6.64;73.99;99406.16;2028473;87;21045;-64
2021/05/24 02:48:54;;;;;;;22.13;7.83;;;;;;;6.64;74.18;99406.16;2012915;88;21152;-63
2021/05/24 02:51:56;;;;;;;27.30;11.55;;;;;;;6.70;74.09;99406.39;2028309;88;21160;-63
2021/05/24 02:54:57;;;;;;;30.10;14.58;;;;;;;6.69;73.99;99404.22;2012876;88;21056;-63
2021/05/24 02:57:58;;;;;;;24.27;9.28;;;;;;;6.67;73.93;99406.51;2012778;88;21120;-64
2021/05/24 03:01:00;;;;;;;25.45;8.80;;;;;;;6.61;73.91;99415.83;2028194;87;21599;-63
2021/05/24 03:04:03;;;;;;;25.30;7.92;;;;;;;6.59;73.98;99421.09;2012875;88;21120;-63
2021/05/24 03:07:04;;;;;;;21.52;7.25;;;;;;;6.62;74.10;99418.84;2028292;87;21029;-63
2021/05/24 03:10:06;;;;;;;23.32;7.83;;;;;;;6.68;73.99;99426.00;2012903;88;21113;-67
2021/05/24 03:13:08;;;;;;;23.12;7.87;;;;;;;6.73;73.83;99426.67;2028191;87;21065;-64
2021/05/24 03:16:10;;;;;;;24.20;7.90;;;;;;;6.83;74.29;99436.79;2012788;88;21068;-63
2021/05/24 03:19:11;;;;;;;25.25;7.65;;;;;;;7.01;73.75;99432.64;2028364;87;21145;-63
2021/05/24 03:22:13;;;;;;;20.32;6.37;;;;;;;7.15;73.81;99425.16;2012907;88;21041;-63
2021/05/24 03:25:14;;;;;;;23.83;7.03;;;;;;;7.32;73.33;99432.36;2028101;87;21591;-63
2021/05/24 03:28:16;;;;;;;21.70;6.60;;;;;;;7.40;73.08;99436.00;2012970;88;21662;-62
2021/05/24 03:31:17;;;;;;;28.60;6.83;;;;;;;7.56;72.60;99437.56;2028813;87;21036;-67
2021/05/24 03:34:19;;;;;;;21.37;6.20;;;;;;;7.63;72.72;99433.80;2014286;88;21024;-64
2021/05/24 03:37:20;;;;;;;17.98;5.10;;;;;;;7.77;72.91;99435.41;2035072;87;21048;-63
2021/05/24 03:40:22;;;;;;;25.35;6.00;;;;;;;8.04;72.72;99435.66;2014263;88;21112;-65
2021/05/24 03:43:23;;;;;;;21.60;5.90;;;;;;;8.25;72.56;99446.53;2035563;87;21017;-65
2021/05/24 03:46:25;;;;;;;27.32;8.98;;;;;;;8.50;71.77;99449.45;2013988;88;21659;-64
2021/05/24 03:49:27;;;;;;;22.93;7.43;;;;;;;8.74;71.59;99459.79;2035329;87;21068;-64
2021/05/24 03:52:28;;;;;;;28.55;9.10;;;;;;;8.86;71.02;99456.62;2014315;88;21048;-65
2021/05/24 03:55:30;;;;;;;24.43;7.35;;;;;;;9.01;71.38;99453.80;2035211;87;21049;-64
2021/05/24 03:58:31;;;;;;;21.10;6.95;;;;;;;9.27;71.38;99450.00;2014016;88;21080;-64
2021/05/24 04:01:34;;;;;;;25.88;8.43;;;;;;;9.50;70.75;99453.34;2035106;87;21623;-63
2021/05/24 04:04:36;;;;;;;22.87;6.83;;;;;;;9.66;70.73;99453.47;2013998;88;21076;-64
2021/05/24 04:07:38;;;;;;;20.48;5.80;;;;;;;10.01;71.00;99463.58;2035318;87;21060;-64
2021/05/24 04:10:50;;;;;;;21.37;6.20;;;;;;;10.36;70.47;99461.48;2014233;88;21575;-64
2021/05/24 04:13:49;;;;;;;23.35;6.25;;;;;;;10.56;70.27;99468.35;2056649;86;21588;-65
2021/05/24 04:16:46;;;;;;;21.85;6.55;;;;;;;10.77;69.85;99461.14;1990681;88;21675;-64
2021/05/24 04:19:49;;;;;;;19.23;5.90;;;;;;;11.01;70.47;99462.95;2035545;87;21052;-64
2021/05/24 04:22:51;;;;;;;21.25;5.83;;;;;;;11.39;69.04;99468.39;2035161;87;21568;-64
2021/05/24 04:25:52;;;;;;;22.77;5.95;;;;;;;11.66;69.06;99454.21;2035227;87;21078;-65
2021/05/24 04:28:53;;;;;;;20.17;6.00;;;;;;;12.04;68.76;99459.14;2035685;87;21069;-64
2021/05/24 04:31:55;;;;;;;21.17;6.10;;;;;;;12.38;67.87;99461.60;2035585;87;21097;-65
2021/05/24 04:34:56;;;;;;;22.03;7.30;;;;;;;12.70;67.73;99454.90;2035638;87;21041;-69
2021/05/24 04:37:58;;;;;;;25.77;8.60;;;;;;;13.00;66.73;99455.70;2035555;87;21559;-67
2021/05/24 04:40:59;;;;;;;24.30;8.78;;;;;;;13.21;66.82;99447.41;2014510;88;21116;-67
2021/05/24 04:47:04;;;;;;;25.23;8.30;;;;;;;13.68;65.68;99451.50;2013039;87;21141;-65
2021/05/24 04:50:05;;;;;;;23.30;8.43;;;;;;;13.94;65.78;99448.15;2034385;87;21088;-64
2021/05/24 04:53:07;;;;;;;21.73;7.30;;;;;;;14.23;65.34;99461.22;2034036;87;21054;-66
2021/05/24 04:56:08;;;;;;;25.90;8.00;;;;;;;14.46;64.94;99461.84;2035129;87;21065;-64
2021/05/24 04:59:10;;;;;;;25.27;8.63;;;;;;;14.65;64.55;99461.95;2035220;87;21580;-65
2021/05/24 05:02:11;;;;;;;22.77;6.87;;;;;;;14.90;64.59;99467.73;2035419;87;21037;-65
2021/05/24 05:05:13;;;;;;;22.60;6.57;;;;;;;14.99;63.72;99464.45;2035408;87;21153;-66
2021/05/24 05:08:14;;;;;;;20.53;6.13;;;;;;;15.08;63.32;99470.89;2035442;87;21041;-65
2021/05/24 05:11:16;;;;;;;25.80;5.80;;;;;;;15.27;63.54;99477.08;2035571;87;21116;-65
2021/05/24 05:14:17;;;;;;;18.55;5.00;;;;;;;15.49;63.41;99476.88;2035341;87;21569;-65
2021/05/24 05:17:19;;;;;;;19.93;5.03;;;;;;;15.68;61.83;99477.72;2035571;87;21077;-65
2021/05/24 05:20:20;;;;;;;23.40;6.83;;;;;;;15.74;61.56;99482.56;2035526;87;21520;-65
2021/05/24 05:23:21;;;;;;;20.93;6.40;;;;;;;15.77;60.80;99483.66;2035758;87;21002;-65
2021/05/24 05:26:23;;;;;;;20.83;6.90;;;;;;;15.90;60.85;99488.94;2035541;87;21098;-66
2021/05/24 05:29:24;;;;;;;18.13;4.63;;;;;;;16.03;61.43;99492.40;2035468;87;21560;-65
2021/05/24 05:32:26;;;;;;;16.33;4.27;;;;;;;16.12;60.27;99494.84;2034979;87;21061;-65
2021/05/24 05:35:27;;;;;;;21.20;5.20;;;;;;;16.22;60.26;99482.63;2033385;87;21619;-65
2021/05/24 05:38:30;;;;;;;22.17;5.55;;;;;;;16.17;60.18;99483.91;2033436;87;21088;-65
2021/05/24 05:41:32;;;;;;;17.35;4.70;;;;;;;16.48;60.50;99486.91;2033169;87;21566;-65
2021/05/24 05:44:33;;;;;;;21.50;5.58;;;;;;;16.71;59.14;99491.33;2033404;87;21033;-65
2021/05/24 05:47:35;;;;;;;18.62;4.70;;;;;;;16.92;59.28;99493.32;2033395;87;21053;-65
2021/05/24 05:50:36;;;;;;;13.33;3.80;;;;;;;17.08;58.95;99492.98;2033388;87;21594;-65
2021/05/24 05:53:37;;;;;;;18.65;5.10;;;;;;;17.27;58.15;99494.57;2033408;87;21128;-66
2021/05/24 05:56:39;;;;;;;15.08;4.35;;;;;;;17.41;57.67;99496.15;2033278;87;21624;-65
2021/05/24 05:59:40;;;;;;;17.62;4.35;;;;;;;17.64;57.25;99498.30;2033266;87;21016;-66
2021/05/24 06:02:42;;;;;;;18.57;4.15;;;;;;;17.81;56.81;99495.63;2033388;87;21105;-66
2021/05/24 06:05:44;;;;;;;17.37;4.33;;;;;;;17.98;55.89;99498.73;2033208;87;21081;-65
2021/05/24 06:08:45;;;;;;;15.43;4.00;;;;;;;18.08;54.76;99506.30;2033389;87;21076;-64
2021/05/24 06:11:47;;;;;;;15.98;3.52;;;;;;;18.27;55.63;99498.16;2033286;87;21575;-66
2021/05/24 06:14:49;;;;;;;14.58;3.58;;;;;;;18.72;55.28;99499.77;2033249;88;21060;-66
2021/05/24 06:17:50;;;;;;;15.78;3.80;;;;;;;18.72;55.28;99499.77;2033367;87;21108;-65
2021/05/24 06:20:52;;;;;;;11.88;3.12;;;;;;;18.97;53.94;99500.73;2033394;87;21132;-66
2021/05/24 06:23:53;;;;;;;12.93;3.17;;;;;;;19.07;53.81;99503.95;2033282;87;21020;-66
2021/05/24 06:26:55;;;;;;;18.27;4.00;;;;;;;19.07;53.23;99503.95;2033337;88;21038;-66
2021/05/24 06:29:57;;;;;;;16.50;3.90;;;;;;;19.26;53.31;99500.53;2033247;88;21539;-66
2021/05/24 06:32:58;;;;;;;9.35;2.85;;;;;;;19.37;51.95;99503.94;2021561;87;21096;-66
2021/05/24 06:35:59;;;;;;;14.33;3.20;;;;;;;19.52;52.64;99507.56;1999169;88;21029;-66
2021/05/24 06:39:01;;;;;;;14.30;3.35;;;;;;;19.68;51.79;99506.59;1999163;89;21046;-66
2021/05/24 06:42:02;;;;;;;13.85;3.05;;;;;;;19.85;51.82;99502.94;1999300;88;21061;-67
2021/05/24 06:45:05;;;;;;;11.85;2.83;;;;;;;19.97;50.88;99503.66;1999164;88;21565;-66
2021/05/24 06:48:06;;;;;;;7.33;3.08;;;;;;;20.05;50.68;99498.48;1999162;89;21053;-66
2021/05/24 06:51:08;;;;;;;11.05;3.08;;;;;;;20.29;50.17;99495.43;1999143;89;21559;-67
2021/05/24 06:54:09;;;;;;;11.57;3.08;;;;;;;20.43;49.40;99494.18;1999243;89;21062;-66
2021/05/24 06:57:11;;;;;;;8.25;2.58;;;;;;;20.51;49.37;99498.29;1999271;89;21036;-66
2021/05/24 07:00:12;;;;;;;8.70;2.80;;;;;;;20.59;48.69;99500.27;1999157;89;21041;-67
2021/05/24 07:03:13;;;;;;;6.62;2.20;;;;;;;20.58;48.84;99507.91;1999140;88;21088;-66
2021/05/24 07:06:16;;;;;;;10.28;2.62;;;;;;;20.72;47.97;99512.00;1999135;89;21741;-66
2021/05/24 07:09:18;;;;;;;11.57;2.85;;;;;;;20.81;47.83;99511.64;1999158;89;21044;-66
2021/05/24 07:12:19;;;;;;;14.98;3.72;;;;;;;20.96;46.82;99513.34;1999153;89;21545;-67
2021/05/24 07:15:21;;;;;;;12.88;3.10;;;;;;;21.16;48.13;99511.48;1999154;89;21037;-66
2021/05/24 07:18:22;;;;;;;11.03;2.80;;;;;;;21.21;47.69;99514.05;1999201;89;21029;-66
2021/05/24 07:21:24;;;;;;;12.28;2.70;;;;;;;21.13;47.40;99521.10;1999132;89;21560;-67
2021/05/24 07:24:25;;;;;;;11.50;2.75;;;;;;;21.33;46.43;99525.89;1999232;89;21064;-67
2021/05/24 07:27:27;;;;;;;12.60;2.80;;;;;;;21.40;46.42;99525.65;1999104;89;21073;-66
2021/05/24 07:30:28;;;;;;;12.13;3.08;;;;;;;21.40;46.92;99523.81;1999104;89;21128;-67
2021/05/24 07:33:30;;;;;;;10.35;3.12;;;;;;;21.42;45.73;99523.19;2014406;87;21097;-67
2021/05/24 07:36:31;;;;;;;12.82;2.80;;;;;;;21.25;46.13;99526.13;2035156;87;21669;-66
2021/05/24 07:39:33;;;;;;;13.62;3.15;;;;;;;21.16;45.60;99529.67;2035320;87;21024;-66
2021/05/24 07:42:34;;;;;;;10.68;1.70;;;;;;;21.32;45.58;99514.86;2035204;87;21076;-66
2021/05/24 07:45:36;;;;;;;7.78;2.25;;;;;;;21.54;45.14;99529.71;2035280;87;21109;-67
2021/05/24 07:48:37;;;;;;;10.80;2.55;;;;;;;21.68;44.87;99523.88;2035259;87;21017;-67
2021/05/24 07:51:38;;;;;;;12.95;2.67;;;;;;;21.74;44.63;99519.28;2035163;87;21041;-66
2021/05/24 07:54:40;;;;;;;13.98;2.67;;;;;;;21.73;44.65;99517.59;2035434;87;21125;-66
2021/05/24 07:57:42;;;;;;;10.98;2.58;;;;;;;21.88;44.88;99517.95;2035133;87;21128;-66
2021/05/24 08:00:44;;;;;;;7.65;2.40;;;;;;;22.04;44.48;99505.73;2035056;87;21140;-64
2021/05/24 08:03:45;;;;;;;9.13;2.00;;;;;;;22.22;44.31;99513.27;2035295;87;21076;-64
2021/05/24 08:06:47;;;;;;;10.15;2.45;;;;;;;22.44;43.16;99511.16;2035135;87;21567;-65
2021/05/24 08:09:49;;;;;;;9.43;2.52;;;;;;;22.56;43.21;99505.11;2035270;87;21041;-64
2021/05/24 08:12:51;;;;;;;9.85;2.62;;;;;;;22.48;42.75;99510.73;2035019;87;21560;-65
2021/05/24 08:15:53;;;;;;;8.23;2.33;;;;;;;22.31;42.79;99499.49;2035363;87;21107;-65
2021/05/24 08:18:54;;;;;;;9.48;2.40;;;;;;;22.71;43.24;99492.02;2035167;87;21018;-64
2021/05/24 08:21:56;;;;;;;7.10;2.02;;;;;;;22.98;42.08;99499.88;2035183;87;21065;-66
2021/05/24 08:24:57;;;;;;;7.87;2.08;;;;;;;22.94;41.60;99495.02;2035207;87;21096;-65
2021/05/24 08:27:59;;;;;;;8.65;2.30;;;;;;;23.14;41.13;99501.02;2035058;87;21041;-64
2021/05/24 08:31:01;;;;;;;9.08;2.33;;;;;;;23.34;41.16;99503.80;2035396;87;21046;-65
2021/05/24 08:34:02;;;;;;;;;;;;;;;23.65;41.49;99502.45;2036305;87;21118;-65
2021/05/24 08:37:04;;;;;;;8.73;2.50;;;;;;;23.77;38.85;99494.45;2028374;87;20183;-64
2021/05/24 08:40:05;;;;;;;10.35;1.92;;;;;;;23.57;39.90;99494.38;2033324;87;21069;-64
2021/05/24 08:43:07;;;;;;;6.97;2.05;;;;;;;23.41;40.72;99487.12;2033163;87;21029;-65
2021/05/24 08:46:08;;;;;;;5.70;2.05;;;;;;;23.59;40.73;99495.05;2033123;87;21081;-65
2021/05/24 08:49:10;;;;;;;9.35;2.30;;;;;;;23.50;39.72;99471.42;2033394;87;21065;-66
2021/05/24 08:52:12;;;;;;;9.05;2.20;;;;;;;23.50;39.72;99471.42;2033235;87;21095;-65
2021/05/24 08:55:14;;;;;;;13.08;2.40;;;;;;;23.70;39.59;99494.28;2033053;87;21037;-65
2021/05/24 08:58:15;;;;;;;6.22;2.02;;;;;;;23.84;39.50;99493.30;2033343;88;21069;-65
2021/05/24 09:01:17;;;;;;;7.67;2.30;;;;;;;23.73;39.00;99494.42;2033267;88;21600;-65
2021/05/24 09:04:18;;;;;;;7.60;2.00;;;;;;;23.64;38.99;99490.89;2033418;87;21026;-65
2021/05/24 09:07:19;;;;;;;11.65;2.70;;;;;;;23.52;37.26;99490.34;2033421;87;21053;-64
2021/05/24 09:10:21;;;;;;;8.25;2.50;;;;;;;23.22;38.65;99488.20;2033344;87;21037;-65
2021/05/24 09:13:22;;;;;;;7.78;2.33;;;;;;;23.12;37.90;99478.95;2033331;87;21048;-66
2021/05/24 09:16:24;;;;;;;9.08;2.72;;;;;;;22.81;38.26;99460.19;2033400;88;21141;-65
2021/05/24 09:19:25;;;;;;;11.22;2.45;;;;;;;22.83;38.15;99458.69;2033304;87;21623;-64
2021/05/24 09:22:27;;;;;;;11.57;2.10;;;;;;;23.10;39.33;99465.70;2033414;87;21028;-64
2021/05/24 09:25:28;;;;;;;8.20;1.55;;;;;;;23.25;37.56;99453.92;2033243;87;21052;-65
2021/05/24 09:28:29;;;;;;;7.60;2.22;;;;;;;23.11;37.07;99441.97;2033366;88;21037;-65
2021/05/24 09:31:32;;;;;;;7.65;1.70;;;;;;;23.26;37.60;99434.20;2033428;87;21138;-64
2021/05/24 09:34:34;;;;;;;7.17;1.75;;;;;;;23.16;36.82;99442.34;2033211;86;21113;-65
2021/05/24 09:37:36;;;;;;;6.45;1.70;;;;;;;23.28;36.79;99448.25;2033233;87;21040;-65
2021/05/24 09:40:37;;;;;;;;;;;;;;;23.17;35.61;99447.19;2035699;87;21061;-65
2021/05/24 09:43:39;;;;;;;9.83;1.90;;;;;;;23.24;36.89;99455.43;2028365;88;20517;-65
2021/05/24 09:46:40;;;;;;;5.08;1.35;;;;;;;23.53;36.46;99465.74;2014856;88;21120;-65
2021/05/24 09:49:43;;;;;;;4.67;1.30;;;;;;;23.75;36.30;99455.44;2033190;87;21556;-65
2021/05/24 09:52:46;;;;;;;8.40;1.52;;;;;;;23.86;35.28;99462.72;2033410;87;21029;-65
2021/05/24 09:55:47;;;;;;;4.75;1.40;;;;;;;23.76;34.87;99451.28;2033239;87;21172;-65
2021/05/24 09:58:49;;;;;;;6.12;1.70;;;;;;;23.70;35.89;99455.93;2033259;87;21584;-66
2021/05/24 10:01:53;;;;;;;3.33;1.00;;;;;;;23.79;35.47;99460.80;2033407;87;21105;-65
2021/05/24 10:04:54;;;;;;;7.62;1.72;;;;;;;23.84;35.77;99447.77;1979819;89;21096;-65
2021/05/24 10:07:55;;;;;;;6.05;1.55;;;;;;;23.90;35.67;99446.31;2033494;87;21333;-65
2021/05/24 10:10:57;;;;;;;;;;;;;;;24.04;35.58;99444.32;2035600;87;21057;-65
2021/05/24 10:13:59;;;;;;;7.78;1.92;;;;;;;23.94;35.18;99437.77;2028506;88;20147;-66
2021/05/24 10:17:03;;;;;;;8.65;1.90;;;;;;;23.65;35.55;99444.37;2015000;88;21064;-65
2021/05/24 10:20:04;;;;;;;6.22;1.82;;;;;;;23.40;36.20;99435.92;2013028;88;21045;-65
2021/05/24 10:23:05;;;;;;;7.55;2.37;;;;;;;23.36;36.33;99430.07;2033421;87;21093;-65
2021/05/24 10:26:07;;;;;;;7.45;1.62;;;;;;;23.44;36.79;99422.05;2033466;87;21068;-66
2021/05/24 10:29:08;;;;;;;11.33;2.00;;;;;;;23.56;36.25;99414.58;2033494;87;21064;-66
2021/05/24 10:32:10;;;;;;;6.78;1.80;;;;;;;23.57;36.52;99419.42;2033395;87;21569;-66
2021/05/24 10:35:11;;;;;;;5.90;1.60;;;;;;;23.47;35.89;99423.05;2034725;86;21129;-66
2021/05/24 10:38:13;;;;;;;7.28;2.12;;;;;;;23.48;36.42;99423.41;2035443;87;21113;-66
2021/05/24 10:41:16;;;;;;;10.35;2.40;;;;;;;23.63;36.34;99414.74;2035315;87;21025;-68
2021/05/24 10:44:18;;;;;;;6.92;1.92;;;;;;;23.74;36.71;99404.23;2035076;87;21681;-65
2021/05/24 10:47:19;;;;;;;9.05;2.40;;;;;;;23.86;36.10;99397.54;2035285;87;21034;-66
2021/05/24 10:50:21;;;;;;;14.53;1.82;;;;;;;24.10;37.35;99405.31;2035342;87;20986;-65
2021/05/24 10:53:22;;;;;;;10.20;1.62;;;;;;;24.38;36.12;99399.11;2035213;87;21643;-65
2021/05/24 10:56:24;;;;;;;6.55;2.00;;;;;;;24.52;36.11;99390.38;2035302;87;21053;-65
2021/05/24 10:59:25;;;;;;;5.85;1.47;;;;;;;24.52;35.44;99393.55;2035337;87;21061;-67
2021/05/24 11:02:27;;;;;;;5.35;1.90;;;;;;;24.22;35.36;99391.89;2035453;87;21034;-66
2021/05/24 11:05:29;;;;;;;;;;;;;;;24.06;35.31;99397.27;2037704;87;21056;-66
2021/05/24 11:08:31;;;;;;;6.45;1.92;;;;;;;23.87;35.54;99387.20;2016279;88;20247;-65
2021/05/24 11:11:35;;;;;;;;;;;;;;;23.62;35.71;99392.50;2037770;87;21069;-65
2021/05/24 11:14:36;;;;;;;7.45;2.30;;;;;;;23.55;35.76;99382.11;2017602;88;20291;-66
2021/05/24 11:17:37;;;;;;;6.15;1.90;;;;;;;23.65;36.35;99373.93;2035241;87;21034;-65
2021/05/24 11:20:39;;;;;;;8.40;2.25;;;;;;;23.76;35.55;99366.92;2035364;87;21057;-65
2021/05/24 11:23:48;;;;;;;;;;;;;;;23.87;35.43;99371.13;2037505;87;21120;-65
2021/05/24 11:26:44;;;;;;;8.53;2.12;;;;;;;24.07;35.34;99365.46;2017573;88;20263;-65
2021/05/24 11:29:47;;;;;;;7.05;2.00;;;;;;;24.33;35.60;99355.38;2035545;87;21013;-65
2021/05/24 11:32:49;;;;;;;7.67;2.52;;;;;;;24.65;35.49;99348.81;2035157;87;21026;-65
2021/05/24 11:35:50;;;;;;;8.73;2.02;;;;;;;24.68;35.27;99342.61;2033570;87;21117;-65
2021/05/24 11:38:52;;;;;;;8.00;2.20;;;;;;;24.68;34.90;99340.41;2033447;87;21021;-67
2021/05/24 11:41:53;;;;;;;6.50;1.72;;;;;;;24.59;34.77;99334.20;2033355;87;21539;-65
2021/05/24 11:44:58;;;;;;;6.30;1.80;;;;;;;24.69;35.66;99334.05;2033062;88;21084;-65
2021/05/24 11:47:59;;;;;;;10.18;1.98;;;;;;;24.89;34.63;99330.45;1979401;89;21083;-65
2021/05/24 11:51:03;;;;;;;6.83;1.95;;;;;;;25.15;33.95;99322.11;2033055;87;21065;-65
2021/05/24 11:54:04;;;;;;;9.75;1.85;;;;;;;25.45;34.97;99322.83;1979901;89;21117;-65
2021/05/24 11:57:06;;;;;;;8.48;2.00;;;;;;;25.42;33.79;99315.95;2033378;87;21076;-65
2021/05/24 12:00:10;;;;;;;8.03;2.20;;;;;;;25.26;34.56;99326.27;2033280;87;21052;-66
2021/05/24 12:03:11;;;;;;;8.38;2.12;;;;;;;25.05;34.34;99329.03;2012920;88;21093;-65
2021/05/24 12:06:12;;;;;;;;;;;;;;;24.89;34.22;99332.63;2035451;88;21084;-65
2021/05/24 12:09:14;;;;;;;4.90;2.00;;;;;;;24.66;34.40;99331.72;2028330;88;20513;-66
2021/05/24 12:12:15;;;;;;;6.28;1.80;;;;;;;24.50;34.47;99323.19;1999272;88;21207;-65
2021/05/24 12:15:17;;;;;;;7.42;1.72;;;;;;;24.63;35.16;99320.00;2033341;87;21046;-65
2021/05/24 12:18:20;;;;;;;7.75;1.55;;;;;;;25.04;34.92;99323.36;2033170;87;21052;-66
2021/05/24 12:21:21;;;;;;;5.45;1.60;;;;;;;25.63;34.91;99319.83;2033079;87;21069;-66
2021/05/24 12:24:23;;;;;;;6.12;1.30;;;;;;;25.86;34.47;99318.48;2033316;87;21065;-66
2021/05/24 12:27:24;;;;;;;9.70;1.70;;;;;;;26.18;33.34;99320.08;2033272;87;21072;-66
2021/05/24 12:30:29;;;;;;;5.05;1.57;;;;;;;26.22;33.63;99322.73;2032991;87;21645;-66
2021/05/24 12:33:29;;;;;;;6.58;1.45;;;;;;;26.27;32.83;99310.91;2012997;88;21568;-66
2021/05/24 12:36:41;;;;;;;9.08;1.87;;;;;;;26.37;32.63;99301.75;2028592;87;21092;-66
2021/05/24 12:39:37;;;;;;;6.10;2.00;;;;;;;26.37;32.96;99279.72;2010331;88;21073;-66
2021/05/24 12:42:38;;;;;;;5.75;1.45;;;;;;;26.34;32.51;99285.47;2010026;88;21073;-67
2021/05/24 12:45:40;;;;;;;6.53;1.65;;;;;;;26.20;33.27;99278.23;2028639;87;21073;-67
2021/05/24 12:48:42;;;;;;;;;;;;;;;26.34;33.06;99276.06;2031098;87;21077;-67
2021/05/24 12:51:43;;;;;;;4.58;1.70;;;;;;;26.65;32.85;99264.78;2028321;88;20179;-66
2021/05/24 12:54:45;;;;;;;8.23;1.90;;;;;;;26.76;32.71;99267.85;2028512;88;21028;-69
2021/05/24 12:57:47;;;;;;;7.90;1.70;;;;;;;26.76;32.85;99275.92;2028291;87;21640;-66
2021/05/24 13:00:48;;;;;;;5.22;1.80;;;;;;;26.70;32.79;99273.17;2028540;87;21121;-66
2021/05/24 13:03:52;;;;;;;;;;;;;;;26.32;31.99;99254.41;2030759;87;21053;-66
2021/05/24 13:06:56;;;;;;;6.70;1.60;;;;;;;25.95;33.37;99258.30;2031393;88;20494;-66
2021/05/24 13:09:56;;;;;;;9.40;1.60;;;;;;;26.06;33.35;99268.63;2010058;88;21585;-66
2021/05/24 13:13:01;;;;;;;7.33;1.52;;;;;;;26.09;32.10;99261.55;2028673;87;21082;-67
2021/05/24 13:16:03;;;;;;;5.55;1.40;;;;;;;26.06;32.72;99248.97;2010066;88;21144;-67
2021/05/24 13:19:16;;;;;;;4.95;1.40;;;;;;;26.18;32.67;99240.78;2028449;87;21043;-67
2021/05/24 13:25:34;;;;;;;7.55;1.75;;;;;;;25.91;32.89;99234.15;2028534;87;21093;-67
2021/05/24 13:31:15;;;;;;;;;;;;;;;26.47;32.62;99237.77;2030851;87;21014;-67
2021/05/24 13:34:17;;;;;;;9.03;1.55;;;;;;;26.72;32.30;99225.38;2028805;87;20569;-66
2021/05/24 13:37:18;;;;;;;7.25;1.72;;;;;;;26.94;32.17;99218.20;2033275;88;21040;-67
2021/05/24 13:40:20;;;;;;;7.92;1.52;;;;;;;26.92;31.69;99222.42;2033320;87;21084;-67
2021/05/24 13:43:21;;;;;;;5.15;1.60;;;;;;;26.71;31.83;99221.86;2033309;87;21036;-66
2021/05/24 13:46:24;;;;;;;7.28;1.77;;;;;;;26.55;32.17;99224.23;2033398;87;21056;-66
2021/05/24 13:49:26;;;;;;;12.80;2.02;;;;;;;26.33;32.13;99223.82;2033137;88;21064;-66
2021/05/24 13:52:27;;;;;;;10.20;1.87;;;;;;;26.03;32.59;99221.97;2033092;87;21068;-66
2021/05/24 13:55:29;;;;;;;1.75;1.10;;;;;;;25.86;33.25;99218.58;2033356;87;21053;-65
2021/05/24 13:58:31;;;;;;;6.75;1.50;;;;;;;25.78;33.14;99212.45;2033342;87;21056;-66
2021/05/24 14:01:33;;;;;;;6.20;1.75;;;;;;;25.64;33.54;99205.51;2033376;87;21607;-66
2021/05/24 14:04:35;;;;;;;4.08;1.50;;;;;;;25.53;33.17;99209.48;2033237;87;21049;-66
2021/05/24 14:07:36;;;;;;;8.55;1.80;;;;;;;25.02;32.52;99194.41;2033268;87;21057;-67
2021/05/24 14:10:39;;;;;;;6.75;1.55;;;;;;;24.65;33.16;99203.52;2033370;87;21085;-66
2021/05/24 14:13:41;;;;;;;7.97;1.95;;;;;;;24.40;33.53;99210.79;2033149;87;21046;-65
2021/05/24 14:16:43;;;;;;;5.50;1.80;;;;;;;24.34;34.16;99201.59;2033144;87;21587;-66
2021/05/24 14:19:44;;;;;;;7.70;1.82;;;;;;;24.49;34.41;99193.64;2033299;87;21041;-67
2021/05/24 14:22:46;;;;;;;6.00;2.00;;;;;;;24.63;34.73;99180.56;2033402;87;21056;-67
2021/05/24 14:25:48;;;;;;;8.30;1.92;;;;;;;24.71;34.40;99186.71;2033210;87;21064;-69